sensor_id;sensor_type;location;lat;lon;timestamp;pressure;altitude;pressure_sealevel;temperature;humidity
967;BME280;56108;48.730;9.304;2023-04-06T00:00:18;97779.19;;;0.25;84.31
967;BME280;56108;48.730;9.304;2023-04-06T00:02:27;97778.41;;;0.21;84.75
967;BME280;56108;48.730;9.304;2023-04-06T00:04:36;97778.94;;;0.34;84.32
967;BME280;56108;48.730;9.304;2023-04-06T00:06:44;97775.25;;;0.41;84.46
967;BME280;56108;48.730;9.304;2023-04-06T00:08:55;97775.09;;;0.49;84.47
967;BME280;56108;48.730;9.304;2023-04-06T00:11:03;97771.28;;;0.61;83.20
967;BME280;56108;48.730;9.304;2023-04-06T00:13:12;97769.34;;;0.67;82.06
967;BME280;56108;48.730;9.304;2023-04-06T00:15:20;97764.38;;;0.58;83.29
967;BME280;56108;48.730;9.304;2023-04-06T00:17:28;97769.84;;;0.49;83.98
967;BME280;56108;48.730;9.304;2023-04-06T00:19:36;97762.09;;;0.44;84.37
967;BME280;56108;48.730;9.304;2023-04-06T00:21:44;97764.50;;;0.54;83.66
967;BME280;56108;48.730;9.304;2023-04-06T00:23:55;97761.00;;;0.53;83.54
967;BME280;56108;48.730;9.304;2023-04-06T00:26:04;97762.72;;;0.54;84.11
967;BME280;56108;48.730;9.304;2023-04-06T00:28:12;97757.72;;;0.45;84.53
967;BME280;56108;48.730;9.304;2023-04-06T00:30:23;97753.09;;;0.55;84.07
967;BME280;56108;48.730;9.304;2023-04-06T00:32:31;97753.09;;;0.55;83.69
967;BME280;56108;48.730;9.304;2023-04-06T00:34:39;97757.09;;;0.68;82.51
967;BME280;56108;48.730;9.304;2023-04-06T00:36:47;97750.06;;;0.70;82.32
967;BME280;56108;48.730;9.304;2023-04-06T00:39:15;97752.94;;;0.61;83.00
967;BME280;56108;48.730;9.304;2023-04-06T00:41:46;97755.56;;;0.61;82.83
967;BME280;56108;48.730;9.304;2023-04-06T00:44:09;97757.53;;;0.52;83.05
967;BME280;56108;48.730;9.304;2023-04-06T00:46:17;97753.22;;;0.50;83.36
967;BME280;56108;48.730;9.304;2023-04-06T00:48:26;97751.59;;;0.46;83.56
967;BME280;56108;48.730;9.304;2023-04-06T00:50:37;97757.53;;;0.52;82.23
967;BME280;56108;48.730;9.304;2023-04-06T00:52:45;97748.16;;;0.44;83.16
967;BME280;56108;48.730;9.304;2023-04-06T00:54:58;97746.56;;;0.38;83.97
967;BME280;56108;48.730;9.304;2023-04-06T00:57:07;97747.44;;;0.39;84.70
967;BME280;56108;48.730;9.304;2023-04-06T00:59:15;97752.50;;;0.45;84.71
967;BME280;56108;48.730;9.304;2023-04-06T01:01:24;97739.75;;;0.33;85.31
967;BME280;56108;48.730;9.304;2023-04-06T01:03:37;97748.16;;;0.44;84.90
967;BME280;56108;48.730;9.304;2023-04-06T01:05:49;97741.91;;;0.49;84.24
967;BME280;56108;48.730;9.304;2023-04-06T01:08:10;97743.78;;;0.44;83.49
967;BME280;56108;48.730;9.304;2023-04-06T01:10:26;97737.75;;;0.42;83.41
967;BME280;56108;48.730;9.304;2023-04-06T01:13:00;97733.34;;;0.43;84.06
967;BME280;56108;48.730;9.304;2023-04-06T01:15:23;97732.41;;;0.45;83.20
967;BME280;56108;48.730;9.304;2023-04-06T01:17:32;97735.84;;;0.47;82.75
967;BME280;56108;48.730;9.304;2023-04-06T01:19:47;97734.47;;;0.34;83.54
967;BME280;56108;48.730;9.304;2023-04-06T01:22:04;97728.47;;;0.29;83.36
967;BME280;56108;48.730;9.304;2023-04-06T01:24:24;97732.13;;;0.23;83.13
967;BME280;56108;48.730;9.304;2023-04-06T01:26:52;97726.22;;;0.15;83.82
967;BME280;56108;48.730;9.304;2023-04-06T01:29:03;97730.75;;;0.09;84.55
967;BME280;56108;48.730;9.304;2023-04-06T01:31:12;97728.88;;;0.14;84.19
967;BME280;56108;48.730;9.304;2023-04-06T01:33:25;97730.56;;;0.16;84.57
967;BME280;56108;48.730;9.304;2023-04-06T01:35:43;97724.72;;;0.07;84.41
967;BME280;56108;48.730;9.304;2023-04-06T01:37:55;97727.22;;;0.10;84.87
967;BME280;56108;48.730;9.304;2023-04-06T01:40:12;97727.41;;;0.04;85.30
967;BME280;56108;48.730;9.304;2023-04-06T01:42:26;97725.69;;;0.03;86.15
967;BME280;56108;48.730;9.304;2023-04-06T01:44:35;97718.91;;;-0.05;86.08
967;BME280;56108;48.730;9.304;2023-04-06T01:46:48;97719.66;;;-0.01;86.43
967;BME280;56108;48.730;9.304;2023-04-06T01:48:57;97723.13;;;-0.01;85.71
967;BME280;56108;48.730;9.304;2023-04-06T01:51:10;97723.97;;;0.02;86.11
967;BME280;56108;48.730;9.304;2023-04-06T01:53:30;97719.72;;;-0.03;86.31
967;BME280;56108;48.730;9.304;2023-04-06T01:55:45;97712.06;;;-0.10;87.32
967;BME280;56108;48.730;9.304;2023-04-06T01:58:01;97715.56;;;-0.11;87.70
967;BME280;56108;48.730;9.304;2023-04-06T02:00:15;97710.31;;;-0.10;87.71
967;BME280;56108;48.730;9.304;2023-04-06T02:02:29;97715.59;;;-0.13;88.70
967;BME280;56108;48.730;9.304;2023-04-06T02:04:42;97707.06;;;-0.19;89.70
967;BME280;56108;48.730;9.304;2023-04-06T02:06:51;97705.13;;;-0.13;90.46
967;BME280;56108;48.730;9.304;2023-04-06T02:09:02;97707.81;;;-0.14;90.90
967;BME280;56108;48.730;9.304;2023-04-06T02:11:14;97710.59;;;-0.20;90.36
967;BME280;56108;48.730;9.304;2023-04-06T02:13:26;97711.38;;;-0.18;90.92
967;BME280;56108;48.730;9.304;2023-04-06T02:15:35;97706.38;;;-0.26;90.95
967;BME280;56108;48.730;9.304;2023-04-06T02:17:43;97703.00;;;-0.31;91.40
967;BME280;56108;48.730;9.304;2023-04-06T02:19:52;97706.63;;;-0.38;92.01
967;BME280;56108;48.730;9.304;2023-04-06T02:21:59;97704.72;;;-0.32;92.12
967;BME280;56108;48.730;9.304;2023-04-06T02:24:10;97699.06;;;-0.49;92.17
967;BME280;56108;48.730;9.304;2023-04-06T02:26:20;97706.03;;;-0.49;93.01
967;BME280;56108;48.730;9.304;2023-04-06T02:28:28;97701.78;;;-0.54;93.02
967;BME280;56108;48.730;9.304;2023-04-06T02:30:39;97700.13;;;-0.58;92.98
967;BME280;56108;48.730;9.304;2023-04-06T02:32:48;97696.66;;;-0.58;92.51
967;BME280;56108;48.730;9.304;2023-04-06T02:34:56;97703.63;;;-0.57;92.12
967;BME280;56108;48.730;9.304;2023-04-06T02:37:06;97695.09;;;-0.65;92.77
967;BME280;56108;48.730;9.304;2023-04-06T02:39:15;97698.75;;;-0.72;92.96
967;BME280;56108;48.730;9.304;2023-04-06T02:41:26;97693.34;;;-0.65;92.90
967;BME280;56108;48.730;9.304;2023-04-06T02:43:36;97699.53;;;-0.69;93.20
967;BME280;56108;48.730;9.304;2023-04-06T02:45:52;97695.38;;;-0.77;93.42
967;BME280;56108;48.730;9.304;2023-04-06T02:48:02;97688.31;;;-0.74;93.65
967;BME280;56108;48.730;9.304;2023-04-06T02:50:11;97690.13;;;-0.76;93.31
967;BME280;56108;48.730;9.304;2023-04-06T02:52:27;97694.41;;;-0.73;92.57
967;BME280;56108;48.730;9.304;2023-04-06T02:54:36;97688.41;;;-0.79;92.75
967;BME280;56108;48.730;9.304;2023-04-06T02:56:47;97689.91;;;-0.67;92.16
967;BME280;56108;48.730;9.304;2023-04-06T02:58:56;97692.53;;;-0.67;91.36
967;BME280;56108;48.730;9.304;2023-04-06T03:01:08;97696.44;;;-0.49;90.49
967;BME280;56108;48.730;9.304;2023-04-06T03:03:18;97695.38;;;-0.40;90.01
967;BME280;56108;48.730;9.304;2023-04-06T03:05:26;97690.34;;;-0.49;90.62
967;BME280;56108;48.730;9.304;2023-04-06T03:07:35;97694.69;;;-0.48;90.41
967;BME280;56108;48.730;9.304;2023-04-06T03:09:49;97694.66;;;-0.47;90.06
967;BME280;56108;48.730;9.304;2023-04-06T03:12:00;97696.38;;;-0.46;90.47
967;BME280;56108;48.730;9.304;2023-04-06T03:14:18;97692.19;;;-0.53;91.44
967;BME280;56108;48.730;9.304;2023-04-06T03:16:27;97688.75;;;-0.55;92.29
967;BME280;56108;48.730;9.304;2023-04-06T03:18:37;97685.19;;;-0.53;92.82
967;BME280;56108;48.730;9.304;2023-04-06T03:20:46;97689.81;;;-0.62;94.25
967;BME280;56108;48.730;9.304;2023-04-06T03:22:57;97686.53;;;-0.72;95.14
967;BME280;56108;48.730;9.304;2023-04-06T03:25:08;97690.16;;;-0.79;95.75
967;BME280;56108;48.730;9.304;2023-04-06T03:27:23;97686.75;;;-0.81;96.02
967;BME280;56108;48.730;9.304;2023-04-06T03:29:32;97690.81;;;-0.68;95.53
967;BME280;56108;48.730;9.304;2023-04-06T03:31:41;97687.22;;;-0.64;94.45
967;BME280;56108;48.730;9.304;2023-04-06T03:34:09;97691.53;;;-0.63;94.24
967;BME280;56108;48.730;9.304;2023-04-06T03:36:17;97695.78;;;-0.57;93.78
967;BME280;56108;48.730;9.304;2023-04-06T03:38:26;97694.94;;;-0.59;94.14
967;BME280;56108;48.730;9.304;2023-04-06T03:40:34;97700.09;;;-0.56;94.21
967;BME280;56108;48.730;9.304;2023-04-06T03:42:45;97692.31;;;-0.59;95.28
967;BME280;56108;48.730;9.304;2023-04-06T03:44:53;97701.38;;;-0.72;96.19
967;BME280;56108;48.730;9.304;2023-04-06T03:47:02;97704.09;;;-0.77;96.83
967;BME280;56108;48.730;9.304;2023-04-06T03:49:10;97698.47;;;-0.99;97.52
967;BME280;56108;48.730;9.304;2023-04-06T03:51:22;97694.44;;;-1.14;99.18
967;BME280;56108;48.730;9.304;2023-04-06T03:53:34;97700.44;;;-1.09;99.07
967;BME280;56108;48.730;9.304;2023-04-06T03:55:48;97700.66;;;-1.19;99.47
967;BME280;56108;48.730;9.304;2023-04-06T03:57:59;97705.97;;;-1.24;100.00
967;BME280;56108;48.730;9.304;2023-04-06T04:02:16;97708.13;;;-1.44;100.00
967;BME280;56108;48.730;9.304;2023-04-06T04:04:25;97711.69;;;-1.48;100.00
967;BME280;56108;48.730;9.304;2023-04-06T04:06:35;97705.50;;;-1.44;100.00
967;BME280;56108;48.730;9.304;2023-04-06T04:08:45;97717.53;;;-1.37;100.00
967;BME280;56108;48.730;9.304;2023-04-06T04:10:53;97716.53;;;-1.30;100.00
967;BME280;56108;48.730;9.304;2023-04-06T04:13:04;97716.38;;;-1.22;99.03
967;BME280;56108;48.730;9.304;2023-04-06T04:15:14;97724.16;;;-1.19;99.28
967;BME280;56108;48.730;9.304;2023-04-06T04:17:24;97718.41;;;-1.37;100.00
967;BME280;56108;48.730;9.304;2023-04-06T04:19:32;97726.34;;;-1.43;100.00
967;BME280;56108;48.730;9.304;2023-04-06T04:21:44;97718.69;;;-1.50;100.00
967;BME280;56108;48.730;9.304;2023-04-06T04:23:57;97721.56;;;-1.64;100.00
967;BME280;56108;48.730;9.304;2023-04-06T04:28:16;97726.84;;;-1.69;100.00
967;BME280;56108;48.730;9.304;2023-04-06T04:30:25;97726.03;;;-1.71;100.00
967;BME280;56108;48.730;9.304;2023-04-06T04:32:33;97724.97;;;-1.61;100.00
967;BME280;56108;48.730;9.304;2023-04-06T04:34:43;97732.81;;;-1.61;100.00
967;BME280;56108;48.730;9.304;2023-04-06T04:37:02;97724.94;;;-1.59;100.00
967;BME280;56108;48.730;9.304;2023-04-06T04:39:22;97730.47;;;-1.76;100.00
967;BME280;56108;48.730;9.304;2023-04-06T04:41:38;97730.31;;;-1.68;100.00
967;BME280;56108;48.730;9.304;2023-04-06T04:43:51;97728.78;;;-1.77;100.00
967;BME280;56108;48.730;9.304;2023-04-06T04:46:03;97733.13;;;-1.79;100.00
967;BME280;56108;48.730;9.304;2023-04-06T04:48:18;97727.13;;;-1.82;100.00
967;BME280;56108;48.730;9.304;2023-04-06T04:50:35;97727.03;;;-1.78;100.00
967;BME280;56108;48.730;9.304;2023-04-06T04:52:43;97725.19;;;-1.71;100.00
967;BME280;56108;48.730;9.304;2023-04-06T04:54:54;97728.66;;;-1.72;100.00
967;BME280;56108;48.730;9.304;2023-04-06T04:57:05;97725.34;;;-1.80;100.00
967;BME280;56108;48.730;9.304;2023-04-06T04:59:20;97731.34;;;-1.75;100.00
967;BME280;56108;48.730;9.304;2023-04-06T05:01:35;97722.50;;;-1.67;100.00
967;BME280;56108;48.730;9.304;2023-04-06T05:04:02;97719.94;;;-1.70;100.00
967;BME280;56108;48.730;9.304;2023-04-06T05:06:10;97731.19;;;-1.68;100.00
967;BME280;56108;48.730;9.304;2023-04-06T05:08:22;97737.16;;;-1.61;100.00
967;BME280;56108;48.730;9.304;2023-04-06T05:10:30;97737.22;;;-1.64;100.00
967;BME280;56108;48.730;9.304;2023-04-06T05:12:40;97731.91;;;-1.60;100.00
967;BME280;56108;48.730;9.304;2023-04-06T05:14:51;97737.94;;;-1.58;100.00
967;BME280;56108;48.730;9.304;2023-04-06T05:17:00;97743.81;;;-1.46;100.00
967;BME280;56108;48.730;9.304;2023-04-06T05:19:09;97745.56;;;-1.45;100.00
967;BME280;56108;48.730;9.304;2023-04-06T05:21:22;97749.06;;;-1.48;100.00
967;BME280;56108;48.730;9.304;2023-04-06T05:23:38;97746.13;;;-1.31;100.00
967;BME280;56108;48.730;9.304;2023-04-06T05:25:46;97755.75;;;-0.91;100.00
967;BME280;56108;48.730;9.304;2023-04-06T05:27:58;97759.16;;;-0.10;99.50
967;BME280;56108;48.730;9.304;2023-04-06T05:30:14;97765.25;;;0.57;92.80
967;BME280;56108;48.730;9.304;2023-04-06T05:32:25;97765.09;;;0.63;89.27
967;BME280;56108;48.730;9.304;2023-04-06T05:34:33;97774.84;;;0.58;88.53
967;BME280;56108;48.730;9.304;2023-04-06T05:36:42;97770.28;;;0.32;89.17
967;BME280;56108;48.730;9.304;2023-04-06T05:38:57;97767.69;;;0.32;89.15
967;BME280;56108;48.730;9.304;2023-04-06T05:41:17;97771.91;;;0.36;89.17
967;BME280;56108;48.730;9.304;2023-04-06T05:43:29;97775.72;;;0.57;87.75
967;BME280;56108;48.730;9.304;2023-04-06T05:45:45;97769.66;;;0.22;88.39
967;BME280;56108;48.730;9.304;2023-04-06T05:47:53;97770.53;;;0.23;89.10
967;BME280;56108;48.730;9.304;2023-04-06T05:50:06;97764.94;;;0.03;89.62
967;BME280;56108;48.730;9.304;2023-04-06T05:52:16;97769.56;;;0.27;90.27
967;BME280;56108;48.730;9.304;2023-04-06T05:54:26;97767.69;;;0.31;90.02
967;BME280;56108;48.730;9.304;2023-04-06T05:56:38;97774.28;;;1.09;87.08
967;BME280;56108;48.730;9.304;2023-04-06T05:58:49;97776.38;;;1.55;82.09
967;BME280;56108;48.730;9.304;2023-04-06T06:01:06;97779.53;;;1.67;80.64
967;BME280;56108;48.730;9.304;2023-04-06T06:03:51;97785.47;;;2.53;75.69
967;BME280;56108;48.730;9.304;2023-04-06T06:06:04;97797.72;;;4.38;68.86
967;BME280;56108;48.730;9.304;2023-04-06T06:08:23;97815.81;;;6.05;58.66
967;BME280;56108;48.730;9.304;2023-04-06T06:10:32;97847.56;;;7.45;53.00
967;BME280;56108;48.730;9.304;2023-04-06T06:12:41;97850.75;;;7.34;52.10
967;BME280;56108;48.730;9.304;2023-04-06T06:14:54;97869.09;;;9.12;48.79
967;BME280;56108;48.730;9.304;2023-04-06T06:17:08;97887.97;;;9.81;45.68
967;BME280;56108;48.730;9.304;2023-04-06T06:19:17;97889.97;;;10.06;44.53
967;BME280;56108;48.730;9.304;2023-04-06T06:21:30;97893.50;;;11.16;41.92
967;BME280;56108;48.730;9.304;2023-04-06T06:23:39;97889.06;;;10.48;42.81
967;BME280;56108;48.730;9.304;2023-04-06T06:25:51;97900.13;;;11.23;40.84
967;BME280;56108;48.730;9.304;2023-04-06T06:28:04;97895.09;;;12.59;38.30
967;BME280;56108;48.730;9.304;2023-04-06T06:30:13;97914.31;;;13.36;36.34
967;BME280;56108;48.730;9.304;2023-04-06T06:32:26;97903.06;;;12.95;37.64
967;BME280;56108;48.730;9.304;2023-04-06T06:34:34;97893.13;;;13.21;36.67
967;BME280;56108;48.730;9.304;2023-04-06T06:36:44;97865.84;;;12.81;37.36
967;BME280;56108;48.730;9.304;2023-04-06T06:38:56;97869.34;;;12.82;36.58
967;BME280;56108;48.730;9.304;2023-04-06T06:41:05;97851.88;;;11.40;38.50
967;BME280;56108;48.730;9.304;2023-04-06T06:43:15;97855.72;;;12.49;37.26
967;BME280;56108;48.730;9.304;2023-04-06T06:45:35;97851.69;;;13.73;36.18
967;BME280;56108;48.730;9.304;2023-04-06T06:47:46;97827.34;;;14.32;34.86
967;BME280;56108;48.730;9.304;2023-04-06T06:49:58;97834.19;;;14.25;33.36
967;BME280;56108;48.730;9.304;2023-04-06T06:52:07;97835.94;;;13.35;35.24
967;BME280;56108;48.730;9.304;2023-04-06T06:54:16;97833.56;;;14.33;34.08
967;BME280;56108;48.730;9.304;2023-04-06T06:56:24;97829.31;;;14.30;34.53
967;BME280;56108;48.730;9.304;2023-04-06T06:58:33;97834.91;;;14.16;34.54
967;BME280;56108;48.730;9.304;2023-04-06T07:00:41;97838.84;;;15.52;32.60
967;BME280;56108;48.730;9.304;2023-04-06T07:02:52;97834.34;;;15.31;32.81
967;BME280;56108;48.730;9.304;2023-04-06T07:05:00;97834.56;;;14.21;34.13
967;BME280;56108;48.730;9.304;2023-04-06T07:07:28;97831.69;;;13.09;36.82
967;BME280;56108;48.730;9.304;2023-04-06T07:09:37;97827.72;;;14.28;35.52
967;BME280;56108;48.730;9.304;2023-04-06T07:11:45;97846.09;;;13.88;35.09
967;BME280;56108;48.730;9.304;2023-04-06T07:13:53;97832.34;;;14.15;34.71
967;BME280;56108;48.730;9.304;2023-04-06T07:16:01;97841.06;;;14.73;33.43
967;BME280;56108;48.730;9.304;2023-04-06T07:18:12;97833.22;;;15.55;32.76
967;BME280;56108;48.730;9.304;2023-04-06T07:20:20;97842.19;;;14.14;34.35
967;BME280;56108;48.730;9.304;2023-04-06T07:22:29;97837.63;;;13.01;35.75
967;BME280;56108;48.730;9.304;2023-04-06T07:24:37;97827.97;;;11.90;38.09
967;BME280;56108;48.730;9.304;2023-04-06T07:26:45;97834.44;;;14.11;35.39
967;BME280;56108;48.730;9.304;2023-04-06T07:28:54;97833.91;;;14.40;34.20
967;BME280;56108;48.730;9.304;2023-04-06T07:31:03;97839.88;;;14.32;35.21
967;BME280;56108;48.730;9.304;2023-04-06T07:33:14;97840.44;;;12.75;36.56
967;BME280;56108;48.730;9.304;2023-04-06T07:35:24;97839.31;;;13.83;35.54
967;BME280;56108;48.730;9.304;2023-04-06T07:37:32;97831.38;;;12.05;38.17
967;BME280;56108;48.730;9.304;2023-04-06T07:39:40;97821.59;;;11.67;39.93
967;BME280;56108;48.730;9.304;2023-04-06T07:41:49;97821.00;;;10.17;42.20
967;BME280;56108;48.730;9.304;2023-04-06T07:43:57;97822.22;;;9.56;43.13
967;BME280;56108;48.730;9.304;2023-04-06T07:46:06;97821.41;;;9.11;44.73
967;BME280;56108;48.730;9.304;2023-04-06T07:48:17;97815.81;;;10.01;43.93
967;BME280;56108;48.730;9.304;2023-04-06T07:50:25;97812.38;;;8.69;46.36
967;BME280;56108;48.730;9.304;2023-04-06T07:52:34;97812.28;;;8.71;47.88
967;BME280;56108;48.730;9.304;2023-04-06T07:54:45;97805.44;;;8.21;48.21
967;BME280;56108;48.730;9.304;2023-04-06T07:56:54;97804.69;;;7.54;50.36
967;BME280;56108;48.730;9.304;2023-04-06T07:59:02;97798.13;;;6.43;54.94
967;BME280;56108;48.730;9.304;2023-04-06T08:01:10;97799.09;;;7.10;52.73
967;BME280;56108;48.730;9.304;2023-04-06T08:03:21;97794.63;;;6.06;55.53
967;BME280;56108;48.730;9.304;2023-04-06T08:05:30;97790.25;;;6.05;57.36
967;BME280;56108;48.730;9.304;2023-04-06T08:07:39;97796.38;;;6.42;55.88
967;BME280;56108;48.730;9.304;2023-04-06T08:09:47;97796.44;;;6.23;55.76
967;BME280;56108;48.730;9.304;2023-04-06T08:11:57;97793.06;;;6.38;56.07
967;BME280;56108;48.730;9.304;2023-04-06T08:14:06;97793.78;;;6.76;56.28
967;BME280;56108;48.730;9.304;2023-04-06T08:16:15;97803.69;;;7.23;55.42
967;BME280;56108;48.730;9.304;2023-04-06T08:18:26;97803.28;;;7.31;54.54
967;BME280;56108;48.730;9.304;2023-04-06T08:20:35;97803.97;;;7.35;54.02
967;BME280;56108;48.730;9.304;2023-04-06T08:22:43;97806.25;;;7.58;52.40
967;BME280;56108;48.730;9.304;2023-04-06T08:24:51;97800.63;;;7.80;52.28
967;BME280;56108;48.730;9.304;2023-04-06T08:26:59;97800.25;;;7.54;52.74
967;BME280;56108;48.730;9.304;2023-04-06T08:29:08;97808.50;;;7.32;53.48
967;BME280;56108;48.730;9.304;2023-04-06T08:31:16;97807.25;;;7.55;51.66
967;BME280;56108;48.730;9.304;2023-04-06T08:33:28;97815.41;;;7.35;49.39
967;BME280;56108;48.730;9.304;2023-04-06T08:35:36;97814.38;;;7.71;48.35
967;BME280;56108;48.730;9.304;2023-04-06T08:37:45;97821.84;;;7.96;49.79
967;BME280;56108;48.730;9.304;2023-04-06T08:39:53;97808.59;;;8.11;49.22
967;BME280;56108;48.730;9.304;2023-04-06T08:42:01;97807.47;;;8.00;48.81
967;BME280;56108;48.730;9.304;2023-04-06T08:44:10;97812.59;;;8.03;49.48
967;BME280;56108;48.730;9.304;2023-04-06T08:46:21;97817.56;;;7.44;48.51
967;BME280;56108;48.730;9.304;2023-04-06T08:48:36;97812.56;;;7.71;49.37
967;BME280;56108;48.730;9.304;2023-04-06T08:50:46;97813.25;;;7.59;48.79
967;BME280;56108;48.730;9.304;2023-04-06T08:52:55;97808.88;;;7.25;49.86
967;BME280;56108;48.730;9.304;2023-04-06T08:55:04;97811.31;;;7.63;48.31
967;BME280;56108;48.730;9.304;2023-04-06T08:57:13;97810.41;;;7.62;49.62
967;BME280;56108;48.730;9.304;2023-04-06T08:59:23;97803.59;;;7.58;49.73
967;BME280;56108;48.730;9.304;2023-04-06T09:01:33;97800.59;;;7.48;48.88
967;BME280;56108;48.730;9.304;2023-04-06T09:03:50;97793.94;;;7.57;49.42
967;BME280;56108;48.730;9.304;2023-04-06T09:05:59;97792.75;;;7.63;50.70
967;BME280;56108;48.730;9.304;2023-04-06T09:08:07;97794.63;;;7.76;50.69
967;BME280;56108;48.730;9.304;2023-04-06T09:10:16;97790.38;;;7.74;49.93
967;BME280;56108;48.730;9.304;2023-04-06T09:12:26;97794.47;;;7.64;49.58
967;BME280;56108;48.730;9.304;2023-04-06T09:14:35;97791.41;;;8.03;50.44
967;BME280;56108;48.730;9.304;2023-04-06T09:16:46;97796.03;;;8.61;47.87
967;BME280;56108;48.730;9.304;2023-04-06T09:19:03;97793.69;;;8.56;48.42
967;BME280;56108;48.730;9.304;2023-04-06T09:21:12;97797.19;;;9.01;49.88
967;BME280;56108;48.730;9.304;2023-04-06T09:23:21;97784.44;;;9.65;45.94
967;BME280;56108;48.730;9.304;2023-04-06T09:25:29;97802.66;;;10.12;45.15
967;BME280;56108;48.730;9.304;2023-04-06T09:27:38;97793.47;;;10.18;43.56
967;BME280;56108;48.730;9.304;2023-04-06T09:29:49;97787.72;;;9.97;44.91
967;BME280;56108;48.730;9.304;2023-04-06T09:32:03;97798.47;;;9.38;45.41
967;BME280;56108;48.730;9.304;2023-04-06T09:34:20;97793.00;;;10.11;43.97
967;BME280;56108;48.730;9.304;2023-04-06T09:36:34;97796.47;;;10.40;41.25
967;BME280;56108;48.730;9.304;2023-04-06T09:38:53;97795.66;;;10.92;40.75
967;BME280;56108;48.730;9.304;2023-04-06T09:41:02;97796.84;;;11.77;39.91
967;BME280;56108;48.730;9.304;2023-04-06T09:43:10;97808.00;;;13.39;36.32
967;BME280;56108;48.730;9.304;2023-04-06T09:45:18;97799.41;;;13.92;36.12
967;BME280;56108;48.730;9.304;2023-04-06T09:47:27;97796.47;;;15.25;34.11
967;BME280;56108;48.730;9.304;2023-04-06T09:49:38;97806.00;;;16.21;31.25
967;BME280;56108;48.730;9.304;2023-04-06T09:51:51;97798.38;;;16.95;29.39
967;BME280;56108;48.730;9.304;2023-04-06T09:54:01;97793.25;;;16.63;29.91
967;BME280;56108;48.730;9.304;2023-04-06T09:56:12;97789.41;;;17.99;29.44
967;BME280;56108;48.730;9.304;2023-04-06T09:58:25;97786.69;;;14.39;30.29
967;BME280;56108;48.730;9.304;2023-04-06T10:00:41;97789.34;;;15.14;31.34
967;BME280;56108;48.730;9.304;2023-04-06T10:02:53;97790.91;;;15.17;30.60
967;BME280;56108;48.730;9.304;2023-04-06T10:05:09;97784.91;;;14.71;31.32
967;BME280;56108;48.730;9.304;2023-04-06T10:07:21;97785.69;;;14.51;30.30
967;BME280;56108;48.730;9.304;2023-04-06T10:09:30;97786.97;;;16.43;28.99
967;BME280;56108;48.730;9.304;2023-04-06T10:11:41;97785.91;;;15.75;27.75
967;BME280;56108;48.730;9.304;2023-04-06T10:13:50;97781.66;;;17.20;27.99
967;BME280;56108;48.730;9.304;2023-04-06T10:15:59;97783.75;;;16.68;26.44
967;BME280;56108;48.730;9.304;2023-04-06T10:18:08;97776.78;;;16.27;26.81
967;BME280;56108;48.730;9.304;2023-04-06T10:20:23;97781.88;;;15.90;26.83
967;BME280;56108;48.730;9.304;2023-04-06T10:22:36;97782.16;;;13.84;30.25
967;BME280;56108;48.730;9.304;2023-04-06T10:24:47;97776.78;;;14.94;28.94
967;BME280;56108;48.730;9.304;2023-04-06T10:26:57;97776.47;;;15.80;28.23
967;BME280;56108;48.730;9.304;2023-04-06T10:29:06;97783.09;;;16.95;25.81
967;BME280;56108;48.730;9.304;2023-04-06T10:31:15;97775.31;;;16.73;26.66
967;BME280;56108;48.730;9.304;2023-04-06T10:33:32;97773.81;;;14.32;28.41
967;BME280;56108;48.730;9.304;2023-04-06T10:35:43;97765.44;;;14.15;30.27
967;BME280;56108;48.730;9.304;2023-04-06T10:37:54;97771.53;;;14.17;29.56
967;BME280;56108;48.730;9.304;2023-04-06T10:40:18;97767.41;;;13.56;29.59
967;BME280;56108;48.730;9.304;2023-04-06T10:42:36;97772.91;;;14.54;29.79
967;BME280;56108;48.730;9.304;2023-04-06T10:44:45;97772.50;;;13.93;28.90
967;BME280;56108;48.730;9.304;2023-04-06T10:46:56;97765.50;;;14.47;30.78
967;BME280;56108;48.730;9.304;2023-04-06T10:49:12;97763.13;;;16.00;28.83
967;BME280;56108;48.730;9.304;2023-04-06T10:51:25;97753.59;;;16.26;29.94
967;BME280;56108;48.730;9.304;2023-04-06T10:53:34;97757.22;;;16.06;28.90
967;BME280;56108;48.730;9.304;2023-04-06T10:55:43;97767.72;;;14.74;27.28
967;BME280;56108;48.730;9.304;2023-04-06T10:57:52;97758.34;;;14.79;27.06
967;BME280;56108;48.730;9.304;2023-04-06T11:00:00;97760.09;;;14.90;28.83
967;BME280;56108;48.730;9.304;2023-04-06T11:02:09;97750.00;;;15.45;30.85
967;BME280;56108;48.730;9.304;2023-04-06T11:04:27;97746.16;;;15.38;32.38
967;BME280;56108;48.730;9.304;2023-04-06T11:06:38;97746.78;;;15.21;30.79
967;BME280;56108;48.730;9.304;2023-04-06T11:08:48;97746.09;;;14.66;30.89
967;BME280;56108;48.730;9.304;2023-04-06T11:11:07;97748.66;;;14.56;31.04
967;BME280;56108;48.730;9.304;2023-04-06T11:13:15;97751.84;;;14.06;31.35
967;BME280;56108;48.730;9.304;2023-04-06T11:15:23;97755.16;;;13.65;30.03
967;BME280;56108;48.730;9.304;2023-04-06T11:17:34;97748.34;;;13.27;30.78
967;BME280;56108;48.730;9.304;2023-04-06T11:19:43;97742.38;;;13.80;31.92
967;BME280;56108;48.730;9.304;2023-04-06T11:21:54;97741.41;;;13.70;29.94
967;BME280;56108;48.730;9.304;2023-04-06T11:24:05;97744.06;;;13.36;31.36
967;BME280;56108;48.730;9.304;2023-04-06T11:26:14;97730.72;;;13.81;32.55
967;BME280;56108;48.730;9.304;2023-04-06T11:28:22;97731.69;;;13.80;33.38
967;BME280;56108;48.730;9.304;2023-04-06T11:30:30;97721.78;;;14.03;33.12
967;BME280;56108;48.730;9.304;2023-04-06T11:32:40;97722.88;;;14.12;31.09
967;BME280;56108;48.730;9.304;2023-04-06T11:34:49;97724.91;;;14.19;32.83
967;BME280;56108;48.730;9.304;2023-04-06T11:37:01;97723.06;;;13.65;31.13
967;BME280;56108;48.730;9.304;2023-04-06T11:39:11;97723.19;;;13.41;31.36
967;BME280;56108;48.730;9.304;2023-04-06T11:41:23;97715.78;;;13.45;31.62
967;BME280;56108;48.730;9.304;2023-04-06T11:43:34;97719.06;;;13.37;29.75
967;BME280;56108;48.730;9.304;2023-04-06T11:45:43;97722.13;;;12.97;29.32
967;BME280;56108;48.730;9.304;2023-04-06T11:47:59;97721.84;;;12.78;31.12
967;BME280;56108;48.730;9.304;2023-04-06T11:50:11;97716.41;;;12.91;28.76
967;BME280;56108;48.730;9.304;2023-04-06T11:52:23;97714.25;;;13.07;28.07
967;BME280;56108;48.730;9.304;2023-04-06T11:54:33;97718.47;;;12.52;26.49
967;BME280;56108;48.730;9.304;2023-04-06T11:56:41;97706.31;;;12.83;30.76
967;BME280;56108;48.730;9.304;2023-04-06T11:58:50;97713.81;;;12.78;28.53
967;BME280;56108;48.730;9.304;2023-04-06T12:03:11;97706.88;;;12.29;31.38